PWSweather.com
Personal Weather Stations
Station Observations
SHAHALMS1
Eftra, Falkenberg, HA

EftraFalkenberg, HA

Lat: 56.85, Lon: 12.65

Elevation: 140

Station Type:

http://hem.passagen.se/risarp101

High Low Average
Temperature 38.7°F3.7°C 32.0°F0.0°C 36.1°F2.3°C
Dew Point 35.3°F1.8°C 28.3°F-2.1°C 33.1°F0.6°C
Winds 11.3 mph 18.2 kmh 0.8 mph 1.3 kmh 7.0 mph SW11.3 kmh SW
Wind Gusts 21.1 mph34.0 kmh 4.3 mph6.9 kmh 14.0 mph22.5 kmh
Humidity 94% 83% 89%
Pressure 29.95 in1014.2 mb 29.62 in1003.0 mb -
Precipitation 0.00 in0.0 mm - -
Hour Temp Dew Point Humidity Winds Wind Gusts Pressure Precip Precip Rate Daily Precip Total
12:00 AM 33.3°F0.7°C 30.4°F-0.9°C 89% 4.2 mph S6.8 kmh S 12.2 mph19.6 kmh 29.95 in1014.2 mb 0.00 in0.0 mm 0.00 in0.0 mm 0.00 in0.0 mm
12:15 AM 33.3°F0.7°C 29.8°F-1.2°C 87% 4.7 mph WSW7.6 kmh WSW 9.3 mph15.0 kmh 29.95 in1014.2 mb 0.00 in0.0 mm 0.00 in0.0 mm 0.00 in0.0 mm
12:30 AM 32.9°F0.5°C 29.7°F-1.3°C 88% 4.3 mph SSW6.9 kmh SSW 9.7 mph15.6 kmh 29.95 in1014.2 mb 0.00 in0.0 mm 0.00 in0.0 mm 0.00 in0.0 mm
12:45 AM 32.2°F0.1°C 28.5°F-1.9°C 86% 1.6 mph S2.6 kmh S 5.0 mph8.0 kmh 29.95 in1014.2 mb 0.00 in0.0 mm 0.00 in0.0 mm 0.00 in0.0 mm
01:00 AM 32.0°F0.0°C 28.3°F-2.1°C 86% 0.8 mph S1.3 kmh S 4.3 mph6.9 kmh 29.95 in1014.2 mb 0.00 in0.0 mm 0.00 in0.0 mm 0.00 in0.0 mm
01:15 AM 32.4°F0.2°C 28.6°F-1.9°C 86% 4.3 mph SW6.9 kmh SW 8.9 mph14.3 kmh 29.95 in1014.2 mb 0.00 in0.0 mm 0.00 in0.0 mm 0.00 in0.0 mm
01:30 AM 33.1°F0.6°C 29.9°F-1.2°C 88% 4.8 mph S7.7 kmh S 11.1 mph17.9 kmh 29.95 in1014.2 mb 0.00 in0.0 mm 0.00 in0.0 mm 0.00 in0.0 mm
01:45 AM 33.3°F0.7°C 30.1°F-1.1°C 88% 5.0 mph S8.0 kmh S 8.6 mph13.8 kmh 29.92 in1013.2 mb 0.00 in0.0 mm 0.00 in0.0 mm 0.00 in0.0 mm
02:00 AM 33.8°F1.0°C 30.9°F-0.6°C 89% 3.7 mph S6.0 kmh S 7.2 mph11.6 kmh 29.92 in1013.2 mb 0.00 in0.0 mm 0.00 in0.0 mm 0.00 in0.0 mm
02:15 AM 34.2°F1.2°C 31.3°F-0.4°C 89% 3.5 mph SSW5.6 kmh SSW 8.9 mph14.3 kmh 29.92 in1013.2 mb 0.00 in0.0 mm 0.00 in0.0 mm 0.00 in0.0 mm
02:30 AM 34.5°F1.4°C 31.6°F-0.2°C 89% 3.8 mph S6.1 kmh S 11.5 mph18.5 kmh 29.92 in1013.2 mb 0.00 in0.0 mm 0.00 in0.0 mm 0.00 in0.0 mm
02:45 AM 34.7°F1.5°C 31.8°F-0.1°C 89% 3.9 mph S6.3 kmh S 9.3 mph15.0 kmh 29.89 in1012.2 mb 0.00 in0.0 mm 0.00 in0.0 mm 0.00 in0.0 mm
03:00 AM 34.5°F1.4°C 31.6°F-0.2°C 89% 4.1 mph S6.6 kmh S 7.5 mph12.1 kmh 29.89 in1012.2 mb 0.00 in0.0 mm 0.00 in0.0 mm 0.00 in0.0 mm
03:15 AM 34.2°F1.2°C 31.3°F-0.4°C 89% 4.5 mph S7.2 kmh S 8.9 mph14.3 kmh 29.89 in1012.2 mb 0.00 in0.0 mm 0.00 in0.0 mm 0.00 in0.0 mm
03:30 AM 34.2°F1.2°C 31.5°F-0.3°C 90% 4.1 mph S6.6 kmh S 11.5 mph18.5 kmh 29.89 in1012.2 mb 0.00 in0.0 mm 0.00 in0.0 mm 0.00 in0.0 mm
03:45 AM 34.5°F1.4°C 31.9°F-0.1°C 90% 5.2 mph S8.4 kmh S 10.7 mph17.2 kmh 29.86 in1011.2 mb 0.00 in0.0 mm 0.00 in0.0 mm 0.00 in0.0 mm
04:00 AM 34.9°F1.6°C 32.5°F0.3°C 91% 5.7 mph S9.2 kmh S 12.5 mph20.1 kmh 29.86 in1011.2 mb 0.00 in0.0 mm 0.00 in0.0 mm 0.00 in0.0 mm
04:15 AM 35.2°F1.8°C 33.1°F0.6°C 92% 5.5 mph S8.9 kmh S 12.5 mph20.1 kmh 29.86 in1011.2 mb 0.00 in0.0 mm 0.00 in0.0 mm 0.00 in0.0 mm
04:30 AM 35.6°F2.0°C 33.5°F0.8°C 92% 5.0 mph S8.0 kmh S 10.0 mph16.1 kmh 29.92 in1013.2 mb 0.00 in0.0 mm 0.00 in0.0 mm 0.00 in0.0 mm
04:45 AM 35.8°F2.1°C 33.7°F0.9°C 92% 5.8 mph S9.3 kmh S 14.0 mph22.5 kmh 29.89 in1012.2 mb 0.00 in0.0 mm 0.00 in0.0 mm 0.00 in0.0 mm
05:00 AM 36.0°F2.2°C 34.1°F1.2°C 93% 5.5 mph S8.9 kmh S 11.5 mph18.5 kmh 29.89 in1012.2 mb 0.00 in0.0 mm 0.00 in0.0 mm 0.00 in0.0 mm
05:15 AM 35.6°F2.0°C 33.5°F0.8°C 92% 6.2 mph SSW10.0 kmh SSW 12.2 mph19.6 kmh 29.89 in1012.2 mb 0.00 in0.0 mm 0.00 in0.0 mm 0.00 in0.0 mm
05:30 AM 35.6°F2.0°C 33.5°F0.8°C 92% 6.3 mph SSW10.1 kmh SSW 14.0 mph22.5 kmh 29.89 in1012.2 mb 0.00 in0.0 mm 0.00 in0.0 mm 0.00 in0.0 mm
05:45 AM 34.9°F1.6°C 32.8°F0.4°C 92% 5.7 mph S9.2 kmh S 12.2 mph19.6 kmh 29.89 in1012.2 mb 0.00 in0.0 mm 0.00 in0.0 mm 0.00 in0.0 mm
06:00 AM 34.3°F1.3°C 32.3°F0.2°C 92% 6.6 mph S10.6 kmh S 12.5 mph20.1 kmh 29.89 in1012.2 mb 0.00 in0.0 mm 0.00 in0.0 mm 0.00 in0.0 mm
06:15 AM 34.3°F1.3°C 32.3°F0.2°C 92% 7.0 mph SSW11.3 kmh SSW 12.2 mph19.6 kmh 29.89 in1012.2 mb 0.00 in0.0 mm 0.00 in0.0 mm 0.00 in0.0 mm
06:30 AM 34.3°F1.3°C 32.5°F0.3°C 93% 6.1 mph SSW9.8 kmh SSW 11.5 mph18.5 kmh 29.89 in1012.2 mb 0.00 in0.0 mm 0.00 in0.0 mm 0.00 in0.0 mm
06:45 AM 34.5°F1.4°C 32.7°F0.4°C 93% 6.7 mph WSW10.8 kmh WSW 13.6 mph21.9 kmh 29.89 in1012.2 mb 0.00 in0.0 mm 0.00 in0.0 mm 0.00 in0.0 mm
07:00 AM 34.5°F1.4°C 32.7°F0.4°C 93% 6.0 mph S9.7 kmh S 11.8 mph19.0 kmh 29.89 in1012.2 mb 0.00 in0.0 mm 0.00 in0.0 mm 0.00 in0.0 mm
07:15 AM 34.5°F1.4°C 32.7°F0.4°C 93% 7.3 mph SW11.7 kmh SW 15.7 mph25.3 kmh 29.89 in1012.2 mb 0.00 in0.0 mm 0.00 in0.0 mm 0.00 in0.0 mm
07:30 AM 34.5°F1.4°C 32.7°F0.4°C 93% 7.0 mph S11.3 kmh S 14.0 mph22.5 kmh 29.89 in1012.2 mb 0.00 in0.0 mm 0.00 in0.0 mm 0.00 in0.0 mm
07:45 AM 34.7°F1.5°C 32.9°F0.5°C 93% 6.8 mph SW10.9 kmh SW 12.5 mph20.1 kmh 29.86 in1011.2 mb 0.00 in0.0 mm 0.00 in0.0 mm 0.00 in0.0 mm
08:00 AM 34.7°F1.5°C 32.9°F0.5°C 93% 6.8 mph W10.9 kmh W 12.5 mph20.1 kmh 29.86 in1011.2 mb 0.00 in0.0 mm 0.00 in0.0 mm 0.00 in0.0 mm
08:15 AM 34.7°F1.5°C 32.9°F0.5°C 93% 8.4 mph WSW13.5 kmh WSW 16.1 mph25.9 kmh 29.86 in1011.2 mb 0.00 in0.0 mm 0.00 in0.0 mm 0.00 in0.0 mm
08:32 AM 34.7°F1.5°C 32.9°F0.5°C 93% 11.3 mph W18.2 kmh W 14.0 mph22.5 kmh 29.89 in1012.2 mb 0.00 in0.0 mm 0.00 in0.0 mm 0.00 in0.0 mm
08:33 AM 34.7°F1.5°C 32.9°F0.5°C 93% 9.5 mph W15.3 kmh W 14.0 mph22.5 kmh 29.89 in1012.2 mb 0.00 in0.0 mm 0.00 in0.0 mm 0.00 in0.0 mm
08:34 AM 34.7°F1.5°C 32.9°F0.5°C 93% 9.5 mph W15.3 kmh W 14.0 mph22.5 kmh 29.89 in1012.2 mb 0.00 in0.0 mm 0.00 in0.0 mm 0.00 in0.0 mm
08:35 AM 34.7°F1.5°C 32.9°F0.5°C 93% 9.0 mph W14.5 kmh W 14.0 mph22.5 kmh 29.89 in1012.2 mb 0.00 in0.0 mm 0.00 in0.0 mm 0.00 in0.0 mm
08:36 AM 34.7°F1.5°C 32.9°F0.5°C 93% 8.7 mph W14.0 kmh W 14.0 mph22.5 kmh 29.89 in1012.2 mb 0.00 in0.0 mm 0.00 in0.0 mm 0.00 in0.0 mm
08:37 AM 34.7°F1.5°C 32.9°F0.5°C 93% 8.1 mph W13.0 kmh W 14.0 mph22.5 kmh 29.86 in1011.2 mb 0.00 in0.0 mm 0.00 in0.0 mm 0.00 in0.0 mm
08:38 AM 34.7°F1.5°C 32.9°F0.5°C 93% 7.7 mph W12.4 kmh W 14.0 mph22.5 kmh 29.86 in1011.2 mb 0.00 in0.0 mm 0.00 in0.0 mm 0.00 in0.0 mm
08:53 AM 34.7°F1.5°C 32.9°F0.5°C 93% 6.4 mph S10.3 kmh S 7.9 mph12.7 kmh 29.89 in1012.2 mb 0.00 in0.0 mm 0.00 in0.0 mm 0.00 in0.0 mm
08:54 AM 34.7°F1.5°C 32.9°F0.5°C 93% 8.9 mph S14.3 kmh S 14.0 mph22.5 kmh 29.89 in1012.2 mb 0.00 in0.0 mm 0.00 in0.0 mm 0.00 in0.0 mm
08:55 AM 34.7°F1.5°C 32.9°F0.5°C 93% 8.2 mph S13.2 kmh S 14.0 mph22.5 kmh 29.89 in1012.2 mb 0.00 in0.0 mm 0.00 in0.0 mm 0.00 in0.0 mm
08:56 AM 34.7°F1.5°C 32.9°F0.5°C 93% 8.5 mph S13.7 kmh S 14.0 mph22.5 kmh 29.89 in1012.2 mb 0.00 in0.0 mm 0.00 in0.0 mm 0.00 in0.0 mm
08:57 AM 34.7°F1.5°C 32.9°F0.5°C 93% 8.1 mph S13.0 kmh S 14.0 mph22.5 kmh 29.89 in1012.2 mb 0.00 in0.0 mm 0.00 in0.0 mm 0.00 in0.0 mm
09:00 AM 34.7°F1.5°C 32.9°F0.5°C 93% 8.0 mph S12.9 kmh S 17.5 mph28.2 kmh 29.89 in1012.2 mb 0.00 in0.0 mm 0.00 in0.0 mm 0.00 in0.0 mm
09:15 AM 34.9°F1.6°C 33.3°F0.7°C 94% 8.5 mph WSW13.7 kmh WSW 15.7 mph25.3 kmh 29.86 in1011.2 mb 0.00 in0.0 mm 0.00 in0.0 mm 0.00 in0.0 mm
09:30 AM 35.1°F1.7°C 33.5°F0.8°C 94% 8.4 mph WSW13.5 kmh WSW 16.5 mph26.6 kmh 29.86 in1011.2 mb 0.00 in0.0 mm 0.00 in0.0 mm 0.00 in0.0 mm
09:45 AM 35.4°F1.9°C 33.9°F1.1°C 94% 8.8 mph W14.2 kmh W 19.7 mph31.7 kmh 29.86 in1011.2 mb 0.00 in0.0 mm 0.00 in0.0 mm 0.00 in0.0 mm
10:00 AM 36.0°F2.2°C 34.4°F1.3°C 94% 7.1 mph W11.4 kmh W 16.8 mph27.0 kmh 29.86 in1011.2 mb 0.00 in0.0 mm 0.00 in0.0 mm 0.00 in0.0 mm
10:15 AM 36.5°F2.5°C 34.9°F1.6°C 94% 6.1 mph WSW9.8 kmh WSW 11.8 mph19.0 kmh 29.86 in1011.2 mb 0.00 in0.0 mm 0.00 in0.0 mm 0.00 in0.0 mm
10:30 AM 36.5°F2.5°C 34.7°F1.5°C 93% 9.3 mph W15.0 kmh W 19.3 mph31.1 kmh 29.83 in1010.2 mb 0.00 in0.0 mm 0.00 in0.0 mm 0.00 in0.0 mm
10:45 AM 36.5°F2.5°C 34.4°F1.3°C 92% 11.2 mph WSW18.0 kmh WSW 21.1 mph34.0 kmh 29.83 in1010.2 mb 0.00 in0.0 mm 0.00 in0.0 mm 0.00 in0.0 mm
11:00 AM 36.1°F2.3°C 33.8°F1.0°C 91% 10.7 mph WSW17.2 kmh WSW 20.0 mph32.2 kmh 29.86 in1011.2 mb 0.00 in0.0 mm 0.00 in0.0 mm 0.00 in0.0 mm
11:15 AM 36.5°F2.5°C 33.8°F1.0°C 90% 8.6 mph W13.8 kmh W 17.2 mph27.7 kmh 29.86 in1011.2 mb 0.00 in0.0 mm 0.00 in0.0 mm 0.00 in0.0 mm
11:30 AM 36.3°F2.4°C 33.7°F0.9°C 90% 8.4 mph SW13.5 kmh SW 17.5 mph28.2 kmh 29.86 in1011.2 mb 0.00 in0.0 mm 0.00 in0.0 mm 0.00 in0.0 mm
11:45 AM 36.3°F2.4°C 33.4°F0.8°C 89% 6.9 mph WSW11.1 kmh WSW 16.8 mph27.0 kmh 29.86 in1011.2 mb 0.00 in0.0 mm 0.00 in0.0 mm 0.00 in0.0 mm
12:00 PM 36.5°F2.5°C 33.6°F0.9°C 89% 8.1 mph SW13.0 kmh SW 15.4 mph24.8 kmh 29.83 in1010.2 mb 0.00 in0.0 mm 0.00 in0.0 mm 0.00 in0.0 mm
12:15 PM 36.7°F2.6°C 33.5°F0.8°C 88% 7.8 mph SW12.6 kmh SW 14.3 mph23.0 kmh 29.83 in1010.2 mb 0.00 in0.0 mm 0.00 in0.0 mm 0.00 in0.0 mm
12:30 PM 36.7°F2.6°C 33.5°F0.8°C 88% 7.2 mph SW11.6 kmh SW 16.1 mph25.9 kmh 29.83 in1010.2 mb 0.00 in0.0 mm 0.00 in0.0 mm 0.00 in0.0 mm
12:45 PM 37.4°F3.0°C 34.2°F1.2°C 88% 6.6 mph S10.6 kmh S 15.7 mph25.3 kmh 29.83 in1010.2 mb 0.00 in0.0 mm 0.00 in0.0 mm 0.00 in0.0 mm
01:00 PM 37.8°F3.2°C 33.9°F1.1°C 86% 6.6 mph S10.6 kmh S 12.2 mph19.6 kmh 29.83 in1010.2 mb 0.00 in0.0 mm 0.00 in0.0 mm 0.00 in0.0 mm
01:15 PM 37.6°F3.1°C 33.5°F0.8°C 85% 6.1 mph S9.8 kmh S 12.5 mph20.1 kmh 29.83 in1010.2 mb 0.00 in0.0 mm 0.00 in0.0 mm 0.00 in0.0 mm
01:30 PM 37.6°F3.1°C 33.5°F0.8°C 85% 6.3 mph S10.1 kmh S 16.1 mph25.9 kmh 29.80 in1009.1 mb 0.00 in0.0 mm 0.00 in0.0 mm 0.00 in0.0 mm
01:45 PM 37.8°F3.2°C 33.7°F0.9°C 85% 6.6 mph SSW10.6 kmh SSW 17.5 mph28.2 kmh 29.83 in1010.2 mb 0.00 in0.0 mm 0.00 in0.0 mm 0.00 in0.0 mm
02:00 PM 37.8°F3.2°C 33.9°F1.1°C 86% 7.8 mph SW12.6 kmh SW 15.4 mph24.8 kmh 29.80 in1009.1 mb 0.00 in0.0 mm 0.00 in0.0 mm 0.00 in0.0 mm
02:15 PM 37.8°F3.2°C 33.9°F1.1°C 86% 7.9 mph SW12.7 kmh SW 20.0 mph32.2 kmh 29.80 in1009.1 mb 0.00 in0.0 mm 0.00 in0.0 mm 0.00 in0.0 mm
02:30 PM 37.4°F3.0°C 33.3°F0.7°C 85% 6.2 mph S10.0 kmh S 11.8 mph19.0 kmh 29.80 in1009.1 mb 0.00 in0.0 mm 0.00 in0.0 mm 0.00 in0.0 mm
02:45 PM 36.9°F2.7°C 33.1°F0.6°C 86% 5.9 mph S9.5 kmh S 11.8 mph19.0 kmh 29.80 in1009.1 mb 0.00 in0.0 mm 0.00 in0.0 mm 0.00 in0.0 mm
03:00 PM 36.9°F2.7°C 33.4°F0.8°C 87% 5.5 mph S8.9 kmh S 11.5 mph18.5 kmh 29.80 in1009.1 mb 0.00 in0.0 mm 0.00 in0.0 mm 0.00 in0.0 mm
03:15 PM 37.4°F3.0°C 34.2°F1.2°C 88% 4.5 mph S7.2 kmh S 10.4 mph16.7 kmh 29.80 in1009.1 mb 0.00 in0.0 mm 0.00 in0.0 mm 0.00 in0.0 mm
03:30 PM 37.8°F3.2°C 34.5°F1.4°C 88% 6.9 mph SW11.1 kmh SW 15.7 mph25.3 kmh 29.80 in1009.1 mb 0.00 in0.0 mm 0.00 in0.0 mm 0.00 in0.0 mm
03:45 PM 37.8°F3.2°C 34.2°F1.2°C 87% 5.1 mph S8.2 kmh S 11.5 mph18.5 kmh 29.77 in1008.1 mb 0.00 in0.0 mm 0.00 in0.0 mm 0.00 in0.0 mm
04:00 PM 37.6°F3.1°C 33.8°F1.0°C 86% 6.4 mph S10.3 kmh S 14.0 mph22.5 kmh 29.77 in1008.1 mb 0.00 in0.0 mm 0.00 in0.0 mm 0.00 in0.0 mm
04:15 PM 37.6°F3.1°C 34.1°F1.2°C 87% 7.7 mph S12.4 kmh S 14.0 mph22.5 kmh 29.77 in1008.1 mb 0.00 in0.0 mm 0.00 in0.0 mm 0.00 in0.0 mm
04:27 PM 37.6°F3.1°C 34.1°F1.2°C 87% 8.0 mph S12.9 kmh S 11.8 mph19.0 kmh 29.74 in1007.1 mb 0.00 in0.0 mm 0.00 in0.0 mm 0.00 in0.0 mm
04:28 PM 37.6°F3.1°C 34.1°F1.2°C 87% 8.1 mph S13.0 kmh S 11.8 mph19.0 kmh 29.74 in1007.1 mb 0.00 in0.0 mm 0.00 in0.0 mm 0.00 in0.0 mm
04:29 PM 37.6°F3.1°C 34.1°F1.2°C 87% 7.1 mph S11.4 kmh S 11.8 mph19.0 kmh 29.74 in1007.1 mb 0.00 in0.0 mm 0.00 in0.0 mm 0.00 in0.0 mm
04:30 PM 37.6°F3.1°C 34.1°F1.2°C 87% 6.7 mph S10.8 kmh S 11.8 mph19.0 kmh 29.74 in1007.1 mb 0.00 in0.0 mm 0.00 in0.0 mm 0.00 in0.0 mm
04:45 PM 37.4°F3.0°C 33.9°F1.1°C 87% 6.8 mph WSW10.9 kmh WSW 14.7 mph23.7 kmh 29.77 in1008.1 mb 0.00 in0.0 mm 0.00 in0.0 mm 0.00 in0.0 mm
05:00 PM 37.2°F2.9°C 33.4°F0.8°C 86% 6.9 mph WSW11.1 kmh WSW 13.6 mph21.9 kmh 29.80 in1009.1 mb 0.00 in0.0 mm 0.00 in0.0 mm 0.00 in0.0 mm
05:15 PM 37.2°F2.9°C 33.4°F0.8°C 86% 9.6 mph SW15.4 kmh SW 19.0 mph30.6 kmh 29.77 in1008.1 mb 0.00 in0.0 mm 0.00 in0.0 mm 0.00 in0.0 mm
05:30 PM 37.2°F2.9°C 33.4°F0.8°C 86% 9.4 mph WSW15.1 kmh WSW 20.4 mph32.8 kmh 29.77 in1008.1 mb 0.00 in0.0 mm 0.00 in0.0 mm 0.00 in0.0 mm
05:45 PM 37.2°F2.9°C 33.7°F0.9°C 87% 8.6 mph SW13.8 kmh SW 17.5 mph28.2 kmh 29.77 in1008.1 mb 0.00 in0.0 mm 0.00 in0.0 mm 0.00 in0.0 mm
06:00 PM 37.2°F2.9°C 33.7°F0.9°C 87% 8.9 mph WSW14.3 kmh WSW 16.1 mph25.9 kmh 29.74 in1007.1 mb 0.00 in0.0 mm 0.00 in0.0 mm 0.00 in0.0 mm
06:15 PM 37.4°F3.0°C 33.9°F1.1°C 87% 8.7 mph WSW14.0 kmh WSW 19.3 mph31.1 kmh 29.74 in1007.1 mb 0.00 in0.0 mm 0.00 in0.0 mm 0.00 in0.0 mm
06:30 PM 37.4°F3.0°C 33.6°F0.9°C 86% 8.2 mph SW13.2 kmh SW 17.2 mph27.7 kmh 29.71 in1006.1 mb 0.00 in0.0 mm 0.00 in0.0 mm 0.00 in0.0 mm
06:45 PM 37.6°F3.1°C 33.2°F0.7°C 84% 10.3 mph WSW16.6 kmh WSW 20.8 mph33.5 kmh 29.71 in1006.1 mb 0.00 in0.0 mm 0.00 in0.0 mm 0.00 in0.0 mm
07:00 PM 37.8°F3.2°C 33.1°F0.6°C 83% 9.9 mph WSW15.9 kmh WSW 17.5 mph28.2 kmh 29.71 in1006.1 mb 0.00 in0.0 mm 0.00 in0.0 mm 0.00 in0.0 mm
07:15 PM 37.9°F3.3°C 33.5°F0.8°C 84% 9.2 mph SW14.8 kmh SW 17.2 mph27.7 kmh 29.71 in1006.1 mb 0.00 in0.0 mm 0.00 in0.0 mm 0.00 in0.0 mm
07:30 PM 37.9°F3.3°C 33.8°F1.0°C 85% 7.6 mph SW12.2 kmh SW 14.0 mph22.5 kmh 29.71 in1006.1 mb 0.00 in0.0 mm 0.00 in0.0 mm 0.00 in0.0 mm
07:45 PM 38.1°F3.4°C 34.0°F1.1°C 85% 7.8 mph SSW12.6 kmh SSW 13.6 mph21.9 kmh 29.71 in1006.1 mb 0.00 in0.0 mm 0.00 in0.0 mm 0.00 in0.0 mm
08:00 PM 38.1°F3.4°C 34.3°F1.3°C 86% 7.6 mph SSW12.2 kmh SSW 16.8 mph27.0 kmh 29.71 in1006.1 mb 0.00 in0.0 mm 0.00 in0.0 mm 0.00 in0.0 mm
08:15 PM 38.1°F3.4°C 34.3°F1.3°C 86% 8.2 mph SW13.2 kmh SW 15.4 mph24.8 kmh 29.71 in1006.1 mb 0.00 in0.0 mm 0.00 in0.0 mm 0.00 in0.0 mm
08:30 PM 38.3°F3.5°C 34.2°F1.2°C 85% 8.6 mph SW13.8 kmh SW 15.7 mph25.3 kmh 29.71 in1006.1 mb 0.00 in0.0 mm 0.00 in0.0 mm 0.00 in0.0 mm
08:45 PM 38.3°F3.5°C 33.9°F1.1°C 84% 9.5 mph WSW15.3 kmh WSW 19.0 mph30.6 kmh 29.71 in1006.1 mb 0.00 in0.0 mm 0.00 in0.0 mm 0.00 in0.0 mm
09:00 PM 38.5°F3.6°C 34.1°F1.2°C 84% 8.6 mph SSW13.8 kmh SSW 17.5 mph28.2 kmh 29.68 in1005.1 mb 0.00 in0.0 mm 0.00 in0.0 mm 0.00 in0.0 mm
09:15 PM 38.5°F3.6°C 33.8°F1.0°C 83% 7.7 mph SSW12.4 kmh SSW 17.5 mph28.2 kmh 29.74 in1007.1 mb 0.00 in0.0 mm 0.00 in0.0 mm 0.00 in0.0 mm
09:30 PM 38.3°F3.5°C 34.2°F1.2°C 85% 7.3 mph S11.7 kmh S 14.0 mph22.5 kmh 29.71 in1006.1 mb 0.00 in0.0 mm 0.00 in0.0 mm 0.00 in0.0 mm
09:45 PM 38.3°F3.5°C 34.2°F1.2°C 85% 5.6 mph S9.0 kmh S 14.0 mph22.5 kmh 29.68 in1005.1 mb 0.00 in0.0 mm 0.00 in0.0 mm 0.00 in0.0 mm
10:00 PM 38.3°F3.5°C 34.2°F1.2°C 85% 6.1 mph S9.8 kmh S 11.8 mph19.0 kmh 29.68 in1005.1 mb 0.00 in0.0 mm 0.00 in0.0 mm 0.00 in0.0 mm
10:15 PM 38.3°F3.5°C 34.2°F1.2°C 85% 6.5 mph S10.5 kmh S 17.2 mph27.7 kmh 29.68 in1005.1 mb 0.00 in0.0 mm 0.00 in0.0 mm 0.00 in0.0 mm
10:30 PM 38.3°F3.5°C 34.2°F1.2°C 85% 7.7 mph S12.4 kmh S 17.5 mph28.2 kmh 29.68 in1005.1 mb 0.00 in0.0 mm 0.00 in0.0 mm 0.00 in0.0 mm
10:45 PM 38.3°F3.5°C 34.2°F1.2°C 85% 7.4 mph S11.9 kmh S 17.5 mph28.2 kmh 29.68 in1005.1 mb 0.00 in0.0 mm 0.00 in0.0 mm 0.00 in0.0 mm
11:00 PM 38.5°F3.6°C 34.4°F1.3°C 85% 8.0 mph S12.9 kmh S 16.5 mph26.6 kmh 29.65 in1004.1 mb 0.00 in0.0 mm 0.00 in0.0 mm 0.00 in0.0 mm
11:15 PM 38.7°F3.7°C 34.2°F1.2°C 84% 8.1 mph S13.0 kmh S 19.3 mph31.1 kmh 29.65 in1004.1 mb 0.00 in0.0 mm 0.00 in0.0 mm 0.00 in0.0 mm
11:30 PM 38.5°F3.6°C 34.7°F1.5°C 86% 7.5 mph S12.1 kmh S 16.1 mph25.9 kmh 29.65 in1004.1 mb 0.00 in0.0 mm 0.00 in0.0 mm 0.00 in0.0 mm
11:45 PM 38.3°F3.5°C 35.3°F1.8°C 89% 6.9 mph S11.1 kmh S 14.3 mph23.0 kmh 29.62 in1003.0 mb 0.00 in0.0 mm 0.00 in0.0 mm 0.00 in0.0 mm